AirNav   Air Wisconsin Up To $57,000 Bonus
 
 637 users online  

0PS9 Jefferson Health Bucks County Campus Heliport
Fairless Hills, Pennsylvania, USA

GOING TO FAIRLESS HILLS?


FAA INFORMATION EFFECTIVE 02 JANUARY 2020

Location

FAA Identifier: 0PS9
Lat/Long: 40-10-57.7800N 074-52-04.8300W
40-10.963000N 074-52.080500W
40.1827167,-74.8680083
(estimated)
Elevation: 141 ft. / 43 m (estimated)
Variation: 12W (1980)
Time zone: UTC -5 (UTC -4 during Daylight Saving Time)
Zip code: 19030

Heliport Operations

Heliport use: Private use, MEDICAL USE.
Activation date: 11/1986
Control tower: no
ARTCC: NEW YORK CENTER
FSS: WILLIAMSPORT FLIGHT SERVICE STATION
Attendance: CONTINUOUS
Wind indicator: yes
Segmented circle: no

Heliport Communications

WX ASOS at TTN (6 nm NE): 126.775 (609-538-8690)
WX ASOS at PNE (9 nm SW): 121.15 (215-677-0146)
WX ASOS at VAY (14 nm S): 119.325 (609-267-1176)
WX ASOS at DYL (15 nm NW): 118.875 (215-345-0392)
WX AWOS-3 at LOM (18 nm W): 118.925 (215-646-1068)

Nearby radio navigation aids

VOR radial/distance  VOR name  Freq  Var
ARDr167/4.6YARDLEY VOR/DME108.2010W
GXUr322/16.2MC GUIRE VORTAC110.6012W
RBVr276/17.1ROBBINSVILLE VORTAC113.8010W
SBJr204/24.7SOLBERG VOR/DME112.9010W
CYNr328/29.7COYLE VORTAC113.4010W
PTWr103/31.8POTTSTOWN VORTAC116.5009W
COLr268/33.3COLTS NECK VOR/DME115.4011W
BWZr194/37.0BROADWAY VOR/DME114.2011W
OODr041/38.4WOODSTOWN VORTAC112.8010W
VCNr017/39.0CEDAR LAKE VOR/DME115.2010W

 
NDB name  Hdg/Dist  Freq  Var  ID
AMBLER092/19.427512WING .. -. --.
LAKEHURST300/25.839611WNEL -. . .-..
CHATHAM224/39.025413WCAT -.-. .- -

Heliport Services

Runway Information

Helipad H1

Dimensions: 65 x 65 ft. / 20 x 20 m
Surface: asphalt
ASPH TLOF 40 FT DIAM.
Latitude: 40-10.963000N
Longitude: 074-52.080500W
Elevation: 141.0 ft.
Traffic pattern: leftleft

Heliport Ownership and Management from official FAA records

Ownership: Privately-owned
Owner: ARIA - JEFFERSON HEALTH
4900 FRANKFORD AVE
PHILADELPHIA, PA 19124
Phone 215-831-2594
Manager: KEITH JELLEYMAN
380 NORTH OXFORD VALLEY RD
LANGHORNE, PA 19047
Phone 267-587-0837

Additional Remarks

FOR CD CTC PHILADELPHIA APCH AT 800-354-9884

Instrument Procedures

There are no published instrument procedures at 0PS9.

Some nearby airports with instrument procedures:

KTTN - Trenton Mercer Airport (6 nm NE)
KPNE - Northeast Philadelphia Airport (9 nm SW)
N87 - Trenton-Robbinsville Airport (12 nm E)
KVAY - South Jersey Regional Airport (14 nm S)
KDYL - Doylestown Airport (15 nm NW)
N14 - Flying W Airport (15 nm S)
39N - Princeton Airport (16 nm NE)
KWRI - McGuire Field (Joint Base Mc Guire Dix Lakehurst) Airport (16 nm SE)
KLOM - Wings Field Airport (18 nm W)
 
Loc | Ops | Rwys | IFR | FBO | Links
Com | Nav | Svcs | Stats | Notes
Area around 0PS9 (Jefferson Health Bucks County Campus Heliport)
 
Road maps at: MapQuest Bing Google
 
Aerial photo
No photo
 
Sectional chart

 
Airport distance calculator
Flying to Jefferson Health Bucks County Campus Heliport? Find the distance to fly.

From to 0PS9

Sunrise and sunset
Times for 19-Jan-2020
 Local
(UTC-5)
 Zulu
(UTC)
Morning civil twilight06:5011:50
Sunrise07:1912:19
Sunset17:0122:01
Evening civil twilight17:3122:31

Current date and time
Zulu (UTC)  19-Jan-2020 10:41:35
Local (UTC-5)  19-Jan-2020 05:41:35
 
METAR
KTTN 
6nm N 
ASOS 133.70 609-538-8690
190953Z AUTO 26005KT 10SM OVC070 02/01 A2969 RMK AO2 SLP050 T00220011 $
KPNE 
9nm SW 
191018Z 27005KT 10SM BKN009 OVC070 04/02 A2974 RMK AO2 T00390017
KDYL 
15nm NW 
190954Z AUTO 28004KT 10SM BKN065 02/01 A2969 RMK AO2 SLP062 P0003 T00220006
KVAY 
15nm S 
ASOS 119.325 609-267-1176
191019Z AUTO 25003KT 10SM BKN010 OVC065 04/03 A2972 RMK AO2 CIG 007V013 T00390028 $
KWRI 
16nm SE 
191018Z AUTO 29007KT 10SM -RA SCT007 OVC065 04/03 A2970 RMK AO2 RAE02RAB03 SLPNO $
KLOM 
18nm W 
191015Z AUTO 00000KT 5SM BR SCT006 SCT070 SCT090 01/01 A2972 RMK AO2 T00110009
TAF
KTTN 
6nm N 
190543Z 1906/2006 24008KT P6SM OVC006 TEMPO 1906/1908 4SM -RA BR FM190800 27008KT P6SM BKN006 OVC045 FM191000 29008KT P6SM BKN045 FM191400 30012G24KT P6SM SCT045 FM192300 31010G18KT P6SM SCT045 TEMPO 2003/2006 BKN045
KPNE 
9nm SW 
190908Z 1909/2006 28008KT P6SM OVC008 TEMPO 1910/1911 SCT008 BKN060 FM191100 28010KT P6SM BKN045 FM191400 29014G26KT P6SM SCT045 FM192300 31010G18KT P6SM SCT045 TEMPO 2004/2006 BKN045
KWRI 
16nm SE 
190414Z 1904/2008 20009KT 9999 OVC009 QNH2988INS TEMPO 1904/1906 20015G25KT BECMG 1910/1911 27012KT 9999 BKN015 OVC030 QNH2974INS BECMG 1913/1914 29015G25KT 9999 SCT030 QNH2976INS BECMG 1919/1920 30017G25KT 9999 SCT030 QNH2978INS BECMG 1923/1924 28009KT 9999 FEW030 QNH2999INS TX03/1905Z TN02/1904Z
NOTAMs
Click for the latest NOTAMs
NOTAMs are issued by the DoD/FAA and will open in a separate window not controlled by AirNav.

 

 
 

Would you like to see your business listed on this page?

 If your business provides an interesting product or service to pilots, flight crews, aircraft, or users of the Jefferson Health Bucks County Campus Heliport, you should consider listing it here.  To start the listing process, click on the button below
 
Add a business
 

Other Pages about Jefferson Health Bucks County Campus Heliport

Update a link
 
Copyright © AirNav, LLC. All rights reserved. Privacy Policy  Contact